MSC Monica — 3FSU7 — position and weather

sailwx.info

Track history (hours):
 
Tides and Currents Weather Stations Pressure Air Temp Water Temp Dewpoint Dewpoint Depression Visibility Wind Speed Wind Dir Waves Ship Positions

MSC Monica

Last reported at 2018-Feb-22 00:49 UTC. Time now 2018-Feb-24 22:05 UTC.
Position N 19°41' W 096°06'.

Length 242 m; draft 8.3 m.

Type: Ship (hazmat cat A). MMSI: 351607000.

Date/timePositionNaut miles runAvg speedWind from/ knotsBaromVisibWave heightAir tempDewpointWater temp
2018-Feb-22 00:49N 19°41' W 096°06'717.5
2018-Feb-22 00:27N 19°35' W 096°04'1017.6
2018-Feb-21 23:53N 19°25' W 096°00'717.7
2018-Feb-21 23:31N 19°19' W 095°58'714.4
2018-Feb-21 23:01N 19°13' W 096°01'4 8.5
2018-Feb-21 22:30N 19°12' W 096°05'3 5.4
2018-Feb-21 22:00N 19°13' W 096°08'0 0.6
2018-Feb-21 21:28N 19°13' W 096°08'0 0.0
2018-Feb-21 20:51N 19°13' W 096°08'0 0.0
2018-Feb-21 20:30N 19°13' W 096°08'0 0.0
2018-Feb-21 20:00N 19°13' W 096°08'0 0.0
2018-Feb-21 19:21N 19°13' W 096°08'0 0.0
2018-Feb-21 19:00N 19°13' W 096°08'0 0.0
2018-Feb-21 18:30N 19°13' W 096°08'0 0.0
2018-Feb-21 18:00N 19°13' W 096°08'0 0.0
2018-Feb-21 17:30N 19°13' W 096°08'0 0.0
2018-Feb-21 17:00N 19°13' W 096°08'0 0.0
2018-Feb-21 16:27N 19°13' W 096°08'0 0.0
2018-Feb-21 16:00N 19°13' W 096°08'0 0.0
2018-Feb-21 15:30N 19°13' W 096°08'0 0.0
2018-Feb-21 14:57N 19°13' W 096°08'0 0.0
2018-Feb-21 14:24N 19°13' W 096°08'0 0.0
2018-Feb-21 14:00N 19°13' W 096°08'0 0.0
2018-Feb-21 13:30N 19°13' W 096°08'0 0.0
2018-Feb-21 12:57N 19°13' W 096°08'0 0.0
2018-Feb-21 12:27N 19°13' W 096°08'0 0.0
2018-Feb-21 12:00N 19°13' W 096°08'0 0.0
2018-Feb-21 11:27N 19°13' W 096°08'0 0.0
2018-Feb-21 11:00N 19°13' W 096°08'0 0.0
2018-Feb-21 10:30N 19°13' W 096°08'0 0.0
2018-Feb-21 10:00N 19°13' W 096°08'0 0.0
2018-Feb-21 09:30N 19°13' W 096°08'0 0.0
2018-Feb-21 09:00N 19°13' W 096°08'0 0.0
2018-Feb-21 08:31N 19°13' W 096°08'1 1.5
2018-Feb-21 07:59N 19°12' W 096°08'4 8.1
2018-Feb-21 07:30N 19°11' W 096°04'510.2
2018-Feb-21 07:00N 19°16' W 096°00'613.1
2018-Feb-21 06:30N 19°22' W 095°60'5 9.7
2018-Feb-21 06:01N 19°27' W 095°58'57416.6
2018-Feb-19 19:20N 28°55' W 094°25'617.3
2018-Feb-19 19:00N 29°00' W 094°25'916.0
2018-Feb-19 18:28N 29°09' W 094°25'510.0
2018-Feb-19 17:59N 29°14' W 094°24'4 7.6
2018-Feb-19 17:27N 29°18' W 094°24'0 0.1
2018-Feb-19 17:00N 29°18' W 094°24'0 0.1
2018-Feb-19 16:27N 29°18' W 094°24'0 0.1
2018-Feb-19 16:00N 29°18' W 094°24'0 0.0
2018-Feb-19 15:30N 29°18' W 094°24'0 0.0
2018-Feb-19 15:00N 29°18' W 094°24'0 0.0
2018-Feb-19 14:18N 29°18' W 094°24'0 0.0
2018-Feb-19 13:54N 29°18' W 094°24'0 0.0
2018-Feb-19 12:42N 29°18' W 094°24'0 0.0
2018-Feb-19 12:24N 29°18' W 094°24'0 0.0
2018-Feb-19 12:00N 29°18' W 094°24'0 0.0
2018-Feb-19 11:30N 29°18' W 094°24'0 0.0
2018-Feb-19 11:00N 29°18' W 094°24'0 0.0
2018-Feb-19 10:30N 29°18' W 094°24'0 0.0
2018-Feb-19 10:00N 29°18' W 094°24'0 0.0
2018-Feb-19 09:30N 29°18' W 094°24'0 0.0
2018-Feb-19 09:00N 29°18' W 094°24'0 0.0
2018-Feb-19 08:24N 29°18' W 094°24'0 0.0
2018-Feb-19 07:51N 29°18' W 094°24'0 0.0
2018-Feb-19 07:21N 29°18' W 094°24'0 0.0
2018-Feb-19 06:57N 29°18' W 094°24'0 0.0
2018-Feb-19 06:30N 29°18' W 094°24'0 0.0
2018-Feb-19 06:00N 29°18' W 094°24'0 0.0
2018-Feb-19 05:27N 29°18' W 094°24'0 0.0
2018-Feb-19 05:00N 29°18' W 094°24'0 0.0
2018-Feb-19 04:30N 29°18' W 094°24'0 0.0
2018-Feb-19 04:00N 29°18' W 094°24'0 0.0
2018-Feb-19 02:33N 29°18' W 094°24'0 0.0
2018-Feb-19 02:18N 29°18' W 094°24'0 0.0
2018-Feb-19 01:51N 29°18' W 094°24'0 0.0
2018-Feb-19 01:27N 29°18' W 094°24'0 0.0
2018-Feb-19 00:45N 29°18' W 094°24'0 0.0
2018-Feb-19 00:30N 29°18' W 094°24'0 0.0
2018-Feb-18 23:33N 29°18' W 094°24'0 0.0
2018-Feb-18 23:18N 29°18' W 094°24'0 0.1
2018-Feb-18 22:57N 29°18' W 094°24'0 0.0
2018-Feb-18 22:27N 29°18' W 094°24'0 0.0
2018-Feb-18 22:00N 29°18' W 094°24'0 0.0
2018-Feb-18 21:24N 29°18' W 094°24'0 0.0
2018-Feb-18 21:00N 29°18' W 094°24'0 0.0
2018-Feb-18 17:06N 29°18' W 094°24'0 0.0
2018-Feb-18 15:51N 29°18' W 094°24'0 0.0
2018-Feb-18 15:18N 29°18' W 094°24'0 0.0
2018-Feb-18 09:06N 29°18' W 094°24'0 0.1
2018-Feb-18 09:00N 29°18' W 094°24'0 0.0
2018-Feb-18 08:30N 29°18' W 094°24'0 0.0
2018-Feb-18 07:51N 29°18' W 094°24'0 0.0
2018-Feb-18 07:30N 29°18' W 094°24'0 0.0
2018-Feb-18 06:57N 29°18' W 094°24'0 0.0
2018-Feb-18 05:27N 29°18' W 094°24'0 0.0
2018-Feb-18 05:00N 29°18' W 094°24'0 0.0
2018-Feb-18 03:24N 29°18' W 094°24'0 0.0
2018-Feb-18 03:00N 29°18' W 094°24'0 0.0
2018-Feb-18 02:30N 29°18' W 094°24'0 0.0
2018-Feb-18 01:09N 29°18' W 094°24'0 0.0
2018-Feb-18 00:57N 29°18' W 094°24'0 0.0
2018-Feb-18 00:30N 29°18' W 094°24'0 0.0
2018-Feb-18 00:00N 29°18' W 094°24'0 0.0
2018-Feb-17 23:15N 29°18' W 094°24'0 0.0
2018-Feb-17 22:45N 29°18' W 094°24'0 0.1
2018-Feb-17 22:18N 29°18' W 094°24'0 0.0
2018-Feb-17 21:54N 29°18' W 094°24'0 0.1
2018-Feb-17 20:11N 29°18' W 094°24'4 4.5
2018-Feb-17 19:11N 29°13' W 094°24'411.0
2018-Feb-17 18:49N 29°09' W 094°23'3 8.1
2018-Feb-17 18:27N 29°07' W 094°21'34 9.4
2018-Feb-17 14:49N 28°48' W 093°48'413.4
2018-Feb-17 14:29N 28°46' W 093°44'713.4
2018-Feb-17 13:59N 28°42' W 093°38'613.3
2018-Feb-17 13:30N 28°38' W 093°32'  
2018-Feb-14 22:34N 25°35' W 079°32'217.0
2018-Feb-14 22:28N 25°36' W 079°32'816.9
2018-Feb-14 22:00N 25°44' W 079°30'1916.8
2018-Feb-14 20:52N 26°03' W 079°28'616.3
2018-Feb-14 20:30N 26°09' W 079°26'  
Track history (hours):
 
Tides and Currents Weather Stations Pressure Air Temp Water Temp Dewpoint Dewpoint Depression Visibility Wind Speed Wind Dir Waves Ship Positions

MSC Monica

Last reported at 2018-Feb-22 00:49 UTC. Time now 2018-Feb-24 22:05 UTC.
Position N 19°41' W 096°06'.

Length 242 m; draft 8.3 m.

Type: Ship (hazmat cat A). MMSI: 351607000.

Date/timePositionNaut miles runAvg speedWind from/ knotsBaromVisibWave heightAir tempDewpointWater temp
2018-Feb-22 00:49N 19°41' W 096°06'717.5
2018-Feb-22 00:27N 19°35' W 096°04'1017.6
2018-Feb-21 23:53N 19°25' W 096°00'717.7
2018-Feb-21 23:31N 19°19' W 095°58'714.4
2018-Feb-21 23:01N 19°13' W 096°01'4 8.5
2018-Feb-21 22:30N 19°12' W 096°05'3 5.4
2018-Feb-21 22:00N 19°13' W 096°08'0 0.6
2018-Feb-21 21:28N 19°13' W 096°08'0 0.0
2018-Feb-21 20:51N 19°13' W 096°08'0 0.0
2018-Feb-21 20:30N 19°13' W 096°08'0 0.0
2018-Feb-21 20:00N 19°13' W 096°08'0 0.0
2018-Feb-21 19:21N 19°13' W 096°08'0 0.0
2018-Feb-21 19:00N 19°13' W 096°08'0 0.0
2018-Feb-21 18:30N 19°13' W 096°08'0 0.0
2018-Feb-21 18:00N 19°13' W 096°08'0 0.0
2018-Feb-21 17:30N 19°13' W 096°08'0 0.0
2018-Feb-21 17:00N 19°13' W 096°08'0 0.0
2018-Feb-21 16:27N 19°13' W 096°08'0 0.0
2018-Feb-21 16:00N 19°13' W 096°08'0 0.0
2018-Feb-21 15:30N 19°13' W 096°08'0 0.0
2018-Feb-21 14:57N 19°13' W 096°08'0 0.0
2018-Feb-21 14:24N 19°13' W 096°08'0 0.0
2018-Feb-21 14:00N 19°13' W 096°08'0 0.0
2018-Feb-21 13:30N 19°13' W 096°08'0 0.0
2018-Feb-21 12:57N 19°13' W 096°08'0 0.0
2018-Feb-21 12:27N 19°13' W 096°08'0 0.0
2018-Feb-21 12:00N 19°13' W 096°08'0 0.0
2018-Feb-21 11:27N 19°13' W 096°08'0 0.0
2018-Feb-21 11:00N 19°13' W 096°08'0 0.0
2018-Feb-21 10:30N 19°13' W 096°08'0 0.0
2018-Feb-21 10:00N 19°13' W 096°08'0 0.0
2018-Feb-21 09:30N 19°13' W 096°08'0 0.0
2018-Feb-21 09:00N 19°13' W 096°08'0 0.0
2018-Feb-21 08:31N 19°13' W 096°08'1 1.5
2018-Feb-21 07:59N 19°12' W 096°08'4 8.1
2018-Feb-21 07:30N 19°11' W 096°04'510.2
2018-Feb-21 07:00N 19°16' W 096°00'613.1
2018-Feb-21 06:30N 19°22' W 095°60'5 9.7
2018-Feb-21 06:01N 19°27' W 095°58'57416.6
2018-Feb-19 19:20N 28°55' W 094°25'617.3
2018-Feb-19 19:00N 29°00' W 094°25'916.0
2018-Feb-19 18:28N 29°09' W 094°25'510.0
2018-Feb-19 17:59N 29°14' W 094°24'4 7.6
2018-Feb-19 17:27N 29°18' W 094°24'0 0.1
2018-Feb-19 17:00N 29°18' W 094°24'0 0.1
2018-Feb-19 16:27N 29°18' W 094°24'0 0.1
2018-Feb-19 16:00N 29°18' W 094°24'0 0.0
2018-Feb-19 15:30N 29°18' W 094°24'0 0.0
2018-Feb-19 15:00N 29°18' W 094°24'0 0.0
2018-Feb-19 14:18N 29°18' W 094°24'0 0.0
2018-Feb-19 13:54N 29°18' W 094°24'0 0.0
2018-Feb-19 12:42N 29°18' W 094°24'0 0.0
2018-Feb-19 12:24N 29°18' W 094°24'0 0.0
2018-Feb-19 12:00N 29°18' W 094°24'0 0.0
2018-Feb-19 11:30N 29°18' W 094°24'0 0.0
2018-Feb-19 11:00N 29°18' W 094°24'0 0.0
2018-Feb-19 10:30N 29°18' W 094°24'0 0.0
2018-Feb-19 10:00N 29°18' W 094°24'0 0.0
2018-Feb-19 09:30N 29°18' W 094°24'0 0.0
2018-Feb-19 09:00N 29°18' W 094°24'0 0.0
2018-Feb-19 08:24N 29°18' W 094°24'0 0.0
2018-Feb-19 07:51N 29°18' W 094°24'0 0.0
2018-Feb-19 07:21N 29°18' W 094°24'0 0.0
2018-Feb-19 06:57N 29°18' W 094°24'0 0.0
2018-Feb-19 06:30N 29°18' W 094°24'0 0.0
2018-Feb-19 06:00N 29°18' W 094°24'0 0.0
2018-Feb-19 05:27N 29°18' W 094°24'0 0.0
2018-Feb-19 05:00N 29°18' W 094°24'0 0.0
2018-Feb-19 04:30N 29°18' W 094°24'0 0.0
2018-Feb-19 04:00N 29°18' W 094°24'0 0.0
2018-Feb-19 02:33N 29°18' W 094°24'0 0.0
2018-Feb-19 02:18N 29°18' W 094°24'0 0.0
2018-Feb-19 01:51N 29°18' W 094°24'0 0.0
2018-Feb-19 01:27N 29°18' W 094°24'0 0.0
2018-Feb-19 00:45N 29°18' W 094°24'0 0.0
2018-Feb-19 00:30N 29°18' W 094°24'0 0.0
2018-Feb-18 23:33N 29°18' W 094°24'0 0.0
2018-Feb-18 23:18N 29°18' W 094°24'0 0.1
2018-Feb-18 22:57N 29°18' W 094°24'0 0.0
2018-Feb-18 22:27N 29°18' W 094°24'0 0.0
2018-Feb-18 22:00N 29°18' W 094°24'0 0.0
2018-Feb-18 21:24N 29°18' W 094°24'0 0.0
2018-Feb-18 21:00N 29°18' W 094°24'0 0.0
2018-Feb-18 17:06N 29°18' W 094°24'0 0.0
2018-Feb-18 15:51N 29°18' W 094°24'0 0.0
2018-Feb-18 15:18N 29°18' W 094°24'0 0.0
2018-Feb-18 09:06N 29°18' W 094°24'0 0.1
2018-Feb-18 09:00N 29°18' W 094°24'0 0.0
2018-Feb-18 08:30N 29°18' W 094°24'0 0.0
2018-Feb-18 07:51N 29°18' W 094°24'0 0.0
2018-Feb-18 07:30N 29°18' W 094°24'0 0.0
2018-Feb-18 06:57N 29°18' W 094°24'0 0.0
2018-Feb-18 05:27N 29°18' W 094°24'0 0.0
2018-Feb-18 05:00N 29°18' W 094°24'0 0.0
2018-Feb-18 03:24N 29°18' W 094°24'0 0.0
2018-Feb-18 03:00N 29°18' W 094°24'0 0.0
2018-Feb-18 02:30N 29°18' W 094°24'0 0.0
2018-Feb-18 01:09N 29°18' W 094°24'0 0.0
2018-Feb-18 00:57N 29°18' W 094°24'0 0.0
2018-Feb-18 00:30N 29°18' W 094°24'0 0.0
2018-Feb-18 00:00N 29°18' W 094°24'0 0.0
2018-Feb-17 23:15N 29°18' W 094°24'0 0.0
2018-Feb-17 22:45N 29°18' W 094°24'0 0.1
2018-Feb-17 22:18N 29°18' W 094°24'0 0.0
2018-Feb-17 21:54N 29°18' W 094°24'0 0.1
2018-Feb-17 20:11N 29°18' W 094°24'4 4.5
2018-Feb-17 19:11N 29°13' W 094°24'411.0
2018-Feb-17 18:49N 29°09' W 094°23'3 8.1
2018-Feb-17 18:27N 29°07' W 094°21'34 9.4
2018-Feb-17 14:49N 28°48' W 093°48'413.4
2018-Feb-17 14:29N 28°46' W 093°44'713.4
2018-Feb-17 13:59N 28°42' W 093°38'613.3
2018-Feb-17 13:30N 28°38' W 093°32'  
2018-Feb-14 22:34N 25°35' W 079°32'217.0
2018-Feb-14 22:28N 25°36' W 079°32'816.9
2018-Feb-14 22:00N 25°44' W 079°30'1916.8
2018-Feb-14 20:52N 26°03' W 079°28'616.3
2018-Feb-14 20:30N 26°09' W 079°26'  

Dump ship's entire track history